Аэропорт: Бегишево. Набережные Челны, Нижнекамск

ICAO: UWKE

METAR:
2019/01/21 23:00
UWKE 212300Z 20005G10MPS 1800 R21/P2000 SN BLSN BKN005 M09/M11 Q1004 R21/411550 NOSIG RMK OBST OBSC QFE736/0982
METAR:
2019/01/21 21:21
TAF UWKE 211945Z 2121/2221 21007G12MPS 2000 SN BLSN OVC005 
      TEMPO 2121/2201 17009G14MPS 0300 +SN FZDZ BLSN OVC002 
     FM220100 22005G10MPS 3100 -SN BR OVC011 
      TEMPO 2201/2204 1000 SN OVC003 
      BECMG 2204/2206 26005G10MPS